Time;durP1;ratioP1;P1;durP2;ratioP2;P2;SDS_P1;SDS_P2;PMS_P1;PMS_P2;Temp;Humidity;BMP_temperature;BMP_pressure;BME280_temperature;BME280_humidity;BME280_pressure;Samples;Min_cycle;Max_cycle;Signal;HPM_P1;HPM_P2
2022/05/17 00:01:59;;;;;;;13.70;5.17;;;;;;;22.01;38.67;95330.97;4970931;28;20211;-72
2022/05/17 00:04:26;;;;;;;12.70;5.17;;;;;;;22.08;38.40;95320.59;4971043;28;20255;-71
2022/05/17 00:06:54;;;;;;;9.50;5.23;;;;;;;22.02;38.08;95300.50;4971193;28;20458;-72
2022/05/17 00:09:22;;;;;;;7.90;4.77;;;;;;;22.07;38.38;95327.03;4970934;28;20446;-72
2022/05/17 00:11:49;;;;;;;19.23;5.70;;;;;;;22.09;38.40;95326.72;4971017;28;20981;-72
2022/05/17 00:14:16;;;;;;;11.20;5.70;;;;;;;22.28;38.44;95337.06;4971053;28;20195;-71
2022/05/17 00:16:44;;;;;;;11.93;5.70;;;;;;;22.03;38.66;95334.13;4970721;28;20202;-71
2022/05/17 00:19:16;;;;;;;12.27;5.97;;;;;;;21.94;38.85;95330.66;4970941;28;20525;-71
2022/05/17 00:21:44;;;;;;;11.87;5.97;;;;;;;21.90;38.42;95324.38;4970522;28;20245;-71
2022/05/17 00:24:12;;;;;;;9.20;6.50;;;;;;;21.78;39.09;95342.09;4971002;28;20198;-70
2022/05/17 00:26:40;;;;;;;8.80;5.83;;;;;;;21.52;39.44;95317.31;4971044;28;20211;-71
2022/05/17 00:29:07;;;;;;;7.73;6.23;;;;;;;21.74;38.99;95330.50;4953310;28;20574;-72
2022/05/17 00:31:35;;;;;;;11.53;6.70;;;;;;;21.66;38.81;95331.28;4970773;28;20223;-71
2022/05/17 00:34:03;;;;;;;10.87;6.30;;;;;;;21.90;38.51;95323.59;4969668;28;20238;-71
2022/05/17 00:36:31;;;;;;;7.57;5.60;;;;;;;21.78;38.41;95328.75;4970665;28;20968;-71
2022/05/17 00:38:58;;;;;;;8.93;5.77;;;;;;;21.75;38.36;95316.84;4970680;28;20258;-71
2022/05/17 00:41:26;;;;;;;10.83;5.17;;;;;;;21.80;37.99;95329.28;4970619;28;20490;-70
2022/05/17 00:46:56;;;;;;;8.10;5.10;;;;;;;21.54;38.25;95325.78;4970341;28;20505;-71
2022/05/17 00:49:39;;;;;;;9.93;6.10;;;;;;;21.83;38.28;95328.63;4970239;28;20442;-71
2022/05/17 00:52:11;;;;;;;9.23;6.13;;;;;;;21.67;38.38;95324.84;4970424;28;20434;-70
2022/05/17 00:54:42;;;;;;;8.70;5.33;;;;;;;21.61;38.19;95334.09;4970230;28;20452;-71
2022/05/17 00:57:24;;;;;;;9.90;5.77;;;;;;;21.63;38.20;95323.91;4970611;28;20490;-71
2022/05/17 00:59:51;;;;;;;9.93;5.93;;;;;;;21.17;38.49;95327.16;4970150;28;20249;-70
2022/05/17 01:02:19;;;;;;;12.10;5.20;;;;;;;20.55;39.81;95331.78;4970118;28;20188;-71
2022/05/17 01:04:45;;;;;;;9.43;5.97;;;;;;;19.97;41.21;95321.28;4970204;28;20453;-71
2022/05/17 01:07:18;;;;;;;10.17;5.77;;;;;;;20.70;39.73;95307.41;4970179;28;20522;-70
2022/05/17 01:09:45;;;;;;;9.63;5.37;;;;;;;21.08;39.31;95324.47;4970200;28;20892;-70
2022/05/17 01:12:12;;;;;;;8.50;5.30;;;;;;;20.76;39.79;95314.19;4970206;28;20957;-70
2022/05/17 01:14:58;;;;;;;12.90;5.63;;;;;;;20.99;39.65;95315.69;4970321;28;20494;-70
2022/05/17 01:17:32;;;;;;;9.00;5.17;;;;;;;21.18;39.43;95323.41;4969765;28;20458;-69
2022/05/17 01:20:03;;;;;;;7.60;5.33;;;;;;;21.07;39.81;95317.59;4969698;28;20496;-70
2022/05/17 01:22:30;;;;;;;10.20;5.67;;;;;;;21.23;39.19;95319.78;4953087;28;20446;-71
2022/05/17 01:25:00;;;;;;;9.93;5.97;;;;;;;20.77;40.04;95313.06;4970013;28;20981;-70
2022/05/17 01:27:38;;;;;;;8.20;5.47;;;;;;;21.05;39.47;95314.44;4972163;28;20441;-71
2022/05/17 01:30:06;;;;;;;8.03;5.57;;;;;;;20.84;40.06;95308.06;4973504;28;20488;-71
2022/05/17 01:32:34;;;;;;;7.70;5.53;;;;;;;21.17;39.59;95310.41;4973116;28;20509;-72
2022/05/17 01:35:01;;;;;;;8.50;5.73;;;;;;;20.71;40.84;95301.00;4973506;28;20449;-71
2022/05/17 01:37:28;;;;;;;11.33;6.77;;;;;;;20.79;40.35;95294.91;4973087;28;20501;-71
2022/05/17 01:39:55;;;;;;;8.87;6.07;;;;;;;21.12;39.91;95309.44;4973384;28;20810;-71
2022/05/17 01:42:22;;;;;;;13.87;6.93;;;;;;;20.93;40.26;95300.09;4973856;28;20450;-69
2022/05/17 01:44:49;;;;;;;9.20;6.07;;;;;;;20.82;40.59;95314.81;4973478;28;20450;-70
2022/05/17 01:47:16;;;;;;;9.50;6.40;;;;;;;20.71;40.86;95313.53;4973416;28;20483;-71
2022/05/17 01:49:42;;;;;;;9.10;5.40;;;;;;;20.48;41.30;95322.66;4955897;28;20885;-70
2022/05/17 01:52:10;;;;;;;6.10;5.50;;;;;;;20.60;41.17;95321.00;4973982;28;20269;-71
2022/05/17 01:54:36;;;;;;;8.93;5.70;;;;;;;20.75;40.75;95328.59;4973643;28;20501;-70
2022/05/17 01:57:04;;;;;;;8.57;5.47;;;;;;;20.53;40.78;95301.25;4973275;28;20968;-70
2022/05/17 01:59:32;;;;;;;9.17;6.20;;;;;;;20.62;40.60;95313.50;4973459;28;20435;-71
2022/05/17 02:02:00;;;;;;;8.40;5.23;;;;;;;20.77;40.63;95318.41;4972952;28;20457;-72
2022/05/17 02:04:27;;;;;;;7.93;5.10;;;;;;;20.69;40.61;95315.72;4973127;28;20434;-70
2022/05/17 02:06:54;;;;;;;10.20;5.07;;;;;;;20.37;40.49;95295.53;4973243;28;20928;-72
2022/05/17 02:09:21;;;;;;;9.17;5.47;;;;;;;20.52;40.55;95321.75;4955961;28;20430;-72
2022/05/17 02:11:48;;;;;;;9.73;5.13;;;;;;;20.37;40.37;95318.69;4973013;28;20486;-72
2022/05/17 02:14:15;;;;;;;9.00;5.63;;;;;;;20.52;40.46;95323.63;4973062;28;20442;-71
2022/05/17 02:16:42;;;;;;;9.17;4.90;;;;;;;20.43;40.49;95323.59;4973055;28;20442;-71
2022/05/17 02:19:09;;;;;;;6.80;5.20;;;;;;;20.33;40.56;95323.84;4973230;28;20434;-70
2022/05/17 02:21:36;;;;;;;8.50;5.47;;;;;;;20.02;40.73;95296.41;4972703;28;20489;-72
2022/05/17 02:24:05;;;;;;;7.30;5.23;;;;;;;20.10;40.92;95319.63;4972950;28;20473;-69
2022/05/17 02:26:32;;;;;;;9.77;5.00;;;;;;;19.83;41.07;95335.75;4972618;28;20637;-69
2022/05/17 02:28:59;;;;;;;7.00;4.87;;;;;;;20.10;40.79;95325.75;4973105;28;20462;-72
2022/05/17 02:31:26;;;;;;;10.80;5.47;;;;;;;20.07;40.97;95320.25;4974172;28;20486;-69
2022/05/17 02:33:54;;;;;;;10.37;5.30;;;;;;;19.88;41.35;95314.31;4975545;28;20830;-69
2022/05/17 02:36:21;;;;;;;6.73;4.90;;;;;;;20.11;41.29;95326.50;4974876;28;20454;-70
2022/05/17 02:38:48;;;;;;;10.67;6.53;;;;;;;19.27;42.72;95332.75;4974407;28;20450;-70
2022/05/17 02:41:18;;;;;;;12.03;6.10;;;;;;;18.45;44.53;95326.69;4975128;28;20447;-70
2022/05/17 02:43:47;;;;;;;13.63;6.20;;;;;;;19.36;42.91;95321.13;4972440;28;20438;-72
2022/05/17 02:46:15;;;;;;;10.23;5.57;;;;;;;19.66;42.84;95324.97;4973054;28;20449;-71
2022/05/17 02:48:43;;;;;;;12.73;6.00;;;;;;;19.53;42.82;95315.16;4975153;28;20545;-70
2022/05/17 02:51:15;;;;;;;11.23;6.10;;;;;;;19.96;42.33;95324.25;4975908;28;20543;-71
2022/05/17 02:53:42;;;;;;;7.77;5.53;;;;;;;19.85;41.83;95323.69;4974530;28;20965;-71
2022/05/17 02:56:10;;;;;;;9.33;5.83;;;;;;;19.99;42.07;95334.28;4972681;28;20504;-72
2022/05/17 02:58:37;;;;;;;12.53;6.13;;;;;;;20.04;42.20;95331.47;4973630;28;20466;-70
2022/05/17 03:01:06;;;;;;;7.53;5.67;;;;;;;20.02;42.16;95328.34;4973755;28;20427;-71
2022/05/17 03:03:37;;;;;;;9.37;5.50;;;;;;;19.83;42.40;95319.78;4971755;28;20434;-71
2022/05/17 03:06:04;;;;;;;8.53;5.90;;;;;;;19.97;41.99;95328.47;4971974;28;20446;-72
2022/05/17 03:08:31;;;;;;;12.90;6.00;;;;;;;19.96;42.05;95329.56;4971774;28;21028;-72
2022/05/17 03:10:58;;;;;;;12.10;6.67;;;;;;;19.86;42.44;95329.81;4971800;28;20840;-72
2022/05/17 03:13:25;;;;;;;11.07;6.13;;;;;;;19.61;42.76;95327.75;4971620;28;20465;-71
2022/05/17 03:15:53;;;;;;;10.00;6.23;;;;;;;19.34;43.38;95314.53;4954976;28;20435;-70
2022/05/17 03:18:19;;;;;;;11.63;6.50;;;;;;;19.43;42.86;95323.38;4971928;28;20490;-72
2022/05/17 03:20:49;;;;;;;9.83;6.50;;;;;;;19.59;42.65;95313.97;4971622;28;20478;-71
2022/05/17 03:23:16;;;;;;;9.63;6.20;;;;;;;19.56;42.69;95319.88;4979007;28;20445;-70
2022/05/17 03:25:43;;;;;;;13.23;6.33;;;;;;;19.59;42.51;95330.72;4990834;28;20961;-71
2022/05/17 03:28:12;;;;;;;11.17;6.10;;;;;;;19.57;42.68;95326.75;4991080;28;20859;-71
2022/05/17 03:30:40;;;;;;;11.10;6.37;;;;;;;19.55;43.51;95344.88;4990653;28;21012;-72
2022/05/17 03:33:08;;;;;;;13.70;6.37;;;;;;;19.57;44.28;95334.75;4990526;28;20519;-71
2022/05/17 03:35:35;;;;;;;11.03;6.53;;;;;;;19.49;43.73;95324.84;4991089;28;20449;-70
2022/05/17 03:38:02;;;;;;;10.23;6.37;;;;;;;19.63;43.54;95344.19;4990456;28;20433;-70
2022/05/17 03:40:29;;;;;;;10.43;6.40;;;;;;;19.44;43.87;95339.03;4988307;28;20453;-70
2022/05/17 03:42:56;;;;;;;9.37;5.90;;;;;;;19.60;43.59;95342.09;4978521;28;21006;-70
2022/05/17 03:45:23;;;;;;;8.10;6.67;;;;;;;19.46;43.88;95352.00;4981474;28;20454;-70
2022/05/17 03:47:50;;;;;;;11.93;6.70;;;;;;;19.47;43.83;95332.31;4971447;28;20435;-72
2022/05/17 03:50:18;;;;;;;14.80;7.47;;;;;;;19.65;43.72;95350.00;4970937;28;20466;-71
2022/05/17 03:52:44;;;;;;;11.43;6.20;;;;;;;19.70;44.20;95347.22;4970755;28;20977;-71
2022/05/17 03:55:12;;;;;;;12.60;6.70;;;;;;;19.75;43.84;95334.56;4970862;28;20458;-70
2022/05/17 03:57:39;;;;;;;16.10;6.70;;;;;;;19.89;43.34;95345.19;4970984;28;20454;-71
2022/05/17 04:00:08;;;;;;;14.40;6.53;;;;;;;19.84;43.33;95348.72;4969942;28;20450;-70
2022/05/17 04:02:43;;;;;;;12.67;6.90;;;;;;;19.76;42.70;95346.00;4969471;28;20448;-71
2022/05/17 04:05:11;;;;;;;17.33;7.43;;;;;;;19.53;42.97;95347.06;4969416;28;20969;-70
2022/05/17 04:07:38;;;;;;;12.63;6.90;;;;;;;19.08;44.88;95352.25;4969040;28;20801;-70
2022/05/17 04:10:07;;;;;;;11.90;6.33;;;;;;;19.83;43.49;95346.38;4969437;28;20439;-70
2022/05/17 04:12:34;;;;;;;14.07;7.10;;;;;;;19.75;44.47;95331.91;4984984;28;20473;-72
2022/05/17 04:15:07;;;;;;;20.53;7.60;;;;;;;19.97;43.67;95339.09;4990343;28;20488;-71
2022/05/17 04:17:34;;;;;;;23.23;8.20;;;;;;;20.12;43.86;95344.06;4990097;28;20449;-73
2022/05/17 04:20:02;;;;;;;20.23;7.23;;;;;;;20.16;43.98;95347.69;4990013;28;20480;-72
2022/05/17 04:22:29;;;;;;;20.13;7.37;;;;;;;19.98;44.13;95338.03;4978388;28;20458;-71
2022/05/17 04:24:57;;;;;;;21.50;7.60;;;;;;;20.07;44.02;95352.19;4970388;28;20442;-71
2022/05/17 04:27:25;;;;;;;17.53;7.63;;;;;;;20.16;43.86;95355.69;4971073;28;20447;-71
2022/05/17 04:29:52;;;;;;;16.03;8.47;;;;;;;20.24;43.90;95362.94;4970517;28;20524;-68
2022/05/17 04:32:20;;;;;;;12.63;8.93;;;;;;;20.47;43.03;95361.03;4970524;28;20478;-72
2022/05/17 04:34:47;;;;;;;19.13;9.13;;;;;;;20.11;43.59;95363.75;4970417;28;20453;-70
2022/05/17 04:37:14;;;;;;;19.63;8.80;;;;;;;20.22;42.77;95364.34;4970431;28;20462;-71
2022/05/17 04:39:40;;;;;;;17.67;9.33;;;;;;;20.45;42.56;95361.34;4970650;28;20450;-69
2022/05/17 04:42:08;;;;;;;13.57;8.90;;;;;;;20.50;42.31;95363.88;4953218;28;20458;-70
2022/05/17 04:44:35;;;;;;;13.67;7.60;;;;;;;20.56;41.82;95344.03;4970872;28;20441;-72
2022/05/17 04:47:03;;;;;;;17.27;8.57;;;;;;;20.58;42.09;95357.81;4970437;28;20957;-72
2022/05/17 04:49:31;;;;;;;15.00;8.63;;;;;;;20.52;42.45;95359.03;4969984;28;20454;-71
2022/05/17 04:51:57;;;;;;;21.53;8.03;;;;;;;20.46;42.54;95360.25;4969887;28;20486;-73
2022/05/17 04:54:26;;;;;;;33.43;24.33;;;;;;;20.76;41.78;95359.47;4970312;28;20438;-73
2022/05/17 04:56:53;;;;;;;26.33;15.47;;;;;;;20.91;41.40;95353.69;4970561;28;20455;-74
2022/05/17 04:59:23;;;;;;;10.57;8.30;;;;;;;20.90;41.70;95344.16;4970781;28;20454;-72
2022/05/17 05:01:50;;;;;;;24.27;9.10;;;;;;;21.07;41.04;95352.22;4971499;28;20447;-72
2022/05/17 05:04:17;;;;;;;20.17;9.83;;;;;;;20.39;42.74;95343.13;4974606;28;20545;-71
2022/05/17 05:06:44;;;;;;;50.80;34.23;;;;;;;20.93;42.24;95353.38;4973996;28;20449;-70
2022/05/17 05:09:11;;;;;;;21.57;12.77;;;;;;;20.86;42.24;95356.50;4974211;28;20442;-73
2022/05/17 05:11:38;;;;;;;18.13;10.10;;;;;;;20.62;42.75;95348.09;4974203;28;20584;-71
2022/05/17 05:14:05;;;;;;;12.63;8.97;;;;;;;20.52;42.75;95340.41;4973937;28;20446;-69
2022/05/17 05:16:32;;;;;;;16.37;10.03;;;;;;;20.67;41.87;95353.31;4974472;28;21063;-74
2022/05/17 05:18:59;;;;;;;15.67;9.00;;;;;;;20.63;42.19;95344.38;4957193;28;20513;-70
2022/05/17 05:21:26;;;;;;;16.13;9.37;;;;;;;20.88;41.87;95340.22;4973786;28;20545;-71
2022/05/17 05:23:53;;;;;;;17.30;13.53;;;;;;;21.25;41.33;95336.25;4974055;28;20442;-74
2022/05/17 05:26:20;;;;;;;67.37;51.37;;;;;;;21.31;40.95;95343.03;4973810;28;20541;-74
2022/05/17 05:28:47;;;;;;;19.27;7.97;;;;;;;20.72;42.53;95347.06;4973959;28;20893;-71
2022/05/17 05:31:17;;;;;;;17.57;8.27;;;;;;;21.21;41.71;95343.31;4973392;28;20470;-73
2022/05/17 05:33:44;;;;;;;12.93;8.23;;;;;;;20.58;42.28;95349.84;4972635;28;20446;-76
2022/05/17 05:36:12;;;;;;;13.67;7.93;;;;;;;20.63;42.39;95355.03;4973150;28;20823;-75
2022/05/17 05:38:39;;;;;;;14.53;7.57;;;;;;;20.76;41.58;95343.47;4973444;28;20952;-74
2022/05/17 05:41:12;;;;;;;13.27;7.63;;;;;;;21.53;40.06;95342.91;4973689;28;20542;-73
2022/05/17 05:43:40;;;;;;;15.60;8.40;;;;;;;21.25;41.61;95341.59;4973558;28;20442;-74
2022/05/17 05:46:07;;;;;;;14.87;8.17;;;;;;;20.87;41.86;95360.75;4973959;28;20539;-74
2022/05/17 05:48:34;;;;;;;11.07;8.07;;;;;;;20.97;41.53;95349.81;4973638;28;20518;-75
2022/05/17 05:51:02;;;;;;;15.40;7.83;;;;;;;21.48;41.41;95353.69;4973606;28;20474;-75
2022/05/17 05:53:29;;;;;;;13.43;7.77;;;;;;;21.85;40.45;95347.78;4973398;28;20980;-76
2022/05/17 05:56:01;;;;;;;15.63;8.43;;;;;;;22.09;40.30;95343.53;4973915;28;20821;-75
2022/05/17 05:58:30;;;;;;;13.90;8.57;;;;;;;21.51;41.87;95350.41;4973573;28;21041;-72
2022/05/17 06:00:56;;;;;;;16.87;8.13;;;;;;;21.89;42.05;95348.72;4973521;28;20431;-75
2022/05/17 06:03:24;;;;;;;15.60;8.20;;;;;;;22.20;41.01;95346.66;4956245;28;20248;-75
2022/05/17 06:05:51;;;;;;;18.37;9.17;;;;;;;22.51;40.06;95339.19;4973513;28;20234;-76
2022/05/17 06:08:18;;;;;;;28.33;9.93;;;;;;;21.96;41.73;95333.03;4973122;28;20697;-75
2022/05/17 06:10:45;;;;;;;18.53;8.97;;;;;;;22.40;41.01;95337.16;4973342;28;20620;-74
2022/05/17 06:13:18;;;;;;;19.53;8.90;;;;;;;22.70;39.24;95333.50;4972797;28;20222;-77
2022/05/17 06:15:46;;;;;;;19.17;10.33;;;;;;;22.59;39.25;95332.28;4973535;28;20370;-72
2022/05/17 06:18:14;;;;;;;19.97;11.03;;;;;;;22.40;39.76;95337.97;4973125;28;20442;-76
2022/05/17 06:20:40;;;;;;;16.00;10.07;;;;;;;21.90;42.05;95344.94;4972797;28;20749;-75
2022/05/17 06:23:10;;;;;;;23.03;9.70;;;;;;;22.49;40.87;95340.59;4973367;28;20230;-72
2022/05/17 06:25:38;;;;;;;19.70;9.77;;;;;;;22.13;41.97;95333.75;4973505;28;20241;-75
2022/05/17 06:28:05;;;;;;;16.90;8.80;;;;;;;22.31;41.09;95329.19;4975840;28;20199;-72
2022/05/17 06:30:32;;;;;;;27.33;10.37;;;;;;;22.77;40.35;95342.56;4981296;28;20221;-72
2022/05/17 06:33:01;;;;;;;15.80;9.70;;;;;;;22.32;40.41;95357.44;4974182;28;20263;-72
2022/05/17 06:35:27;;;;;;;22.13;9.67;;;;;;;22.99;39.26;95344.97;4973151;28;20188;-73
2022/05/17 06:37:54;;;;;;;28.60;9.33;;;;;;;23.11;38.29;95344.28;4972653;28;20199;-71
2022/05/17 06:40:21;;;;;;;24.13;9.47;;;;;;;23.25;38.16;95330.69;4973045;28;20623;-76
2022/05/17 06:42:48;;;;;;;16.63;9.27;;;;;;;23.16;38.12;95332.66;4955679;28;20604;-74
2022/05/17 06:45:15;;;;;;;15.33;9.43;;;;;;;23.20;37.95;95333.53;4973059;28;20199;-78
2022/05/17 06:47:42;;;;;;;18.07;9.07;;;;;;;23.14;38.49;95331.06;4972836;28;20203;-71
2022/05/17 06:50:10;;;;;;;22.40;9.10;;;;;;;23.27;38.23;95333.81;4972432;28;20558;-74
2022/05/17 06:52:37;;;;;;;19.50;10.03;;;;;;;23.40;38.09;95332.81;4972464;28;20227;-70
2022/05/17 06:55:06;;;;;;;18.17;10.30;;;;;;;23.31;39.37;95334.75;4972335;28;20822;-72
2022/05/17 06:57:35;;;;;;;24.23;10.83;;;;;;;22.75;40.73;95318.06;4972656;28;20234;-70
2022/05/17 07:00:05;;;;;;;15.93;9.77;;;;;;;23.37;38.66;95317.44;4972558;28;20207;-73
2022/05/17 07:02:35;;;;;;;22.07;9.27;;;;;;;23.95;37.05;95311.91;4972081;28;20191;-71
2022/05/17 07:05:02;;;;;;;14.70;9.90;;;;;;;23.63;39.43;95323.38;4971803;28;20199;-69
2022/05/17 07:07:35;;;;;;;39.90;14.33;;;;;;;23.64;38.87;95327.59;4972248;28;20210;-67
2022/05/17 07:15:36;;;;;;;22.03;10.47;;;;;;;24.08;37.60;95310.88;4971931;28;20553;-72
2022/05/17 07:18:04;;;;;;;19.13;9.80;;;;;;;24.29;36.80;95321.56;4971986;28;20226;-73
2022/05/17 07:20:32;;;;;;;22.47;9.47;;;;;;;24.00;38.33;95309.03;4971503;28;20238;-70
2022/05/17 07:22:59;;;;;;;18.47;9.67;;;;;;;23.88;36.18;95300.97;4972333;28;20215;-68
2022/05/17 07:25:26;;;;;;;28.20;9.70;;;;;;;24.37;36.41;95302.69;4971349;28;20269;-67
2022/05/17 07:27:52;;;;;;;15.90;9.63;;;;;;;24.31;36.69;95301.34;4972266;28;20203;-69
2022/05/17 07:30:19;;;;;;;13.73;8.90;;;;;;;24.40;36.16;95299.34;4972096;28;20297;-71
2022/05/17 07:32:46;;;;;;;23.60;10.53;;;;;;;24.21;36.34;95309.81;4972080;28;20221;-71
2022/05/17 07:35:14;;;;;;;17.60;9.20;;;;;;;24.56;36.63;95294.91;4971737;28;20689;-73
2022/05/17 07:37:41;;;;;;;20.63;10.43;;;;;;;24.18;35.75;95302.41;4971791;28;20281;-72
2022/05/17 07:40:09;;;;;;;15.90;10.37;;;;;;;24.19;35.62;95298.63;4971766;28;20211;-73
2022/05/17 07:42:36;;;;;;;16.20;10.67;;;;;;;24.35;36.20;95294.22;4971619;28;20191;-73
2022/05/17 07:45:04;;;;;;;15.70;9.87;;;;;;;24.60;36.57;95295.81;4971783;28;20210;-72
2022/05/17 07:47:30;;;;;;;16.23;10.10;;;;;;;25.06;34.60;95292.72;4971613;28;20596;-75
2022/05/17 07:49:59;;;;;;;18.00;9.53;;;;;;;24.97;34.47;95294.72;4971594;28;20215;-69
2022/05/17 07:52:26;;;;;;;19.67;9.93;;;;;;;25.22;34.47;95284.00;4971602;28;20219;-71
2022/05/17 07:54:53;;;;;;;16.73;10.23;;;;;;;25.54;33.50;95277.66;4954429;28;20253;-70
2022/05/17 07:57:22;;;;;;;16.17;9.73;;;;;;;24.89;34.49;95276.06;4971688;28;20203;-69
2022/05/17 07:59:49;;;;;;;15.17;9.43;;;;;;;24.49;34.75;95249.13;4971546;28;20745;-72
2022/05/17 08:02:16;;;;;;;13.20;10.23;;;;;;;25.30;33.62;95275.00;4971538;28;20214;-75
2022/05/17 08:04:43;;;;;;;19.03;10.00;;;;;;;25.87;33.74;95272.84;4971422;28;20203;-68
2022/05/17 08:07:10;;;;;;;17.27;9.73;;;;;;;25.68;34.10;95264.63;4971874;28;20666;-72
2022/05/17 08:09:37;;;;;;;15.47;8.67;;;;;;;26.32;33.20;95265.25;4971711;28;20195;-74
2022/05/17 08:12:07;;;;;;;20.83;9.23;;;;;;;25.97;33.18;95256.22;4971559;28;20234;-70
2022/05/17 08:14:37;;;;;;;20.50;9.53;;;;;;;26.48;32.63;95255.28;4970843;28;20203;-73
2022/05/17 08:17:07;;;;;;;17.57;9.20;;;;;;;26.02;32.74;95258.69;4971152;28;20594;-69
2022/05/17 08:19:36;;;;;;;15.57;9.17;;;;;;;26.16;33.19;95248.34;4971437;28;20203;-69
2022/05/17 08:22:06;;;;;;;17.87;9.00;;;;;;;26.24;34.14;95244.69;4970798;28;20231;-67
2022/05/17 08:27:39;;;;;;;13.77;8.43;;;;;;;26.60;33.31;95235.59;4971305;28;20203;-67
2022/05/17 08:30:19;;;;;;;16.33;8.30;;;;;;;26.75;31.95;95240.97;4970580;28;20202;-70
2022/05/17 08:35:43;;;;;;;20.70;7.70;;;;;;;27.22;31.03;95240.91;4970594;28;20290;-71
2022/05/17 08:38:13;;;;;;;19.83;8.50;;;;;;;26.54;30.33;95237.78;4971107;28;20356;-74
2022/05/17 08:41:11;;;;;;;17.40;8.03;;;;;;;27.20;30.42;95237.00;4970866;28;20183;-75
2022/05/17 08:43:57;;;;;;;12.20;8.03;;;;;;;26.41;30.70;95233.63;4970875;28;20278;-71
2022/05/17 08:46:48;;;;;;;11.07;7.37;;;;;;;26.46;31.00;95230.66;4970647;28;20277;-72
2022/05/17 08:50:05;;;;;;;25.10;7.90;;;;;;;27.38;30.72;95228.19;4970829;28;20729;-71
2022/05/17 08:52:36;;;;;;;11.77;7.10;;;;;;;27.19;28.09;95219.31;4970400;28;20290;-72
2022/05/17 08:55:29;;;;;;;9.43;5.70;;;;;;;27.53;30.92;95229.25;4970882;28;20257;-70
2022/05/17 08:58:05;;;;;;;14.03;6.40;;;;;;;28.09;29.05;95203.44;4971245;28;20203;-69
2022/05/17 09:00:42;;;;;;;19.63;7.00;;;;;;;28.20;29.04;95225.94;4970553;28;20294;-71
2022/05/17 09:03:29;;;;;;;14.50;6.87;;;;;;;28.68;28.73;95224.47;4970648;28;20195;-71
2022/05/17 09:06:38;;;;;;;18.97;6.00;;;;;;;28.36;29.66;95218.50;4970362;28;20624;-69
2022/05/17 09:09:13;;;;;;;21.17;5.10;;;;;;;28.40;26.02;95207.78;4970535;28;20274;-72
2022/05/17 09:11:57;;;;;;;13.27;5.63;;;;;;;27.81;26.55;95213.66;4970380;28;20203;-70
2022/05/17 09:14:29;;;;;;;12.37;5.17;;;;;;;27.99;26.74;95209.41;4970456;28;20218;-68
2022/05/17 09:17:04;;;;;;;12.83;5.03;;;;;;;27.69;26.39;95208.41;4970396;28;20674;-70
2022/05/17 09:19:31;;;;;;;11.90;4.60;;;;;;;28.34;27.72;95204.63;4970303;28;20678;-70
2022/05/17 09:22:02;;;;;;;12.70;4.90;;;;;;;29.15;26.02;95194.31;4969829;28;20230;-67
2022/05/17 09:24:35;;;;;;;18.83;4.63;;;;;;;28.79;24.85;95207.31;4970781;28;20298;-73
2022/05/17 09:27:04;;;;;;;8.57;3.20;;;;;;;28.24;24.27;95205.22;4970627;28;20293;-76
2022/05/17 09:29:50;;;;;;;5.50;3.67;;;;;;;27.57;25.19;95200.50;4970224;28;20207;-70
2022/05/17 09:32:30;;;;;;;6.17;3.70;;;;;;;28.45;26.44;95200.19;4970549;28;20218;-72
2022/05/17 09:35:01;;;;;;;8.47;3.70;;;;;;;28.66;24.73;95195.16;4969944;28;20203;-75
2022/05/17 09:37:36;;;;;;;11.27;3.93;;;;;;;28.66;24.82;95195.16;4969897;28;20199;-66
2022/05/17 09:40:07;;;;;;;9.37;5.73;;;;;;;28.78;24.74;95186.84;4966664;28;20191;-67
2022/05/17 09:42:42;;;;;;;7.93;5.00;;;;;;;29.45;23.87;95181.63;4969501;28;20535;-69
2022/05/17 09:45:17;;;;;;;8.57;4.63;;;;;;;29.38;24.28;95181.53;4969618;28;20261;-68
2022/05/17 09:47:57;;;;;;;8.03;3.63;;;;;;;29.40;24.25;95169.19;4977993;28;20202;-68
2022/05/17 09:53:15;;;;;;;9.13;5.60;;;;;;;29.99;24.86;95162.91;4990760;28;20325;-69
2022/05/17 09:55:48;;;;;;;8.33;4.50;;;;;;;30.24;23.74;95158.50;4992529;28;20690;-70
2022/05/17 09:58:33;;;;;;;6.90;3.70;;;;;;;30.10;22.31;95153.00;4992571;28;20592;-71
2022/05/17 10:01:41;;;;;;;11.47;3.60;;;;;;;30.30;22.25;95151.66;4992077;28;20207;-71
2022/05/17 10:04:19;;;;;;;9.47;3.60;;;;;;;29.91;21.42;95159.38;4932328;29;20227;-67
2022/05/17 10:06:51;;;;;;;9.30;3.13;;;;;;;30.28;23.45;95148.53;4984909;28;20590;-68
2022/05/17 10:09:32;;;;;;;9.23;3.63;;;;;;;30.52;22.26;95142.53;4991376;28;20213;-69
2022/05/17 10:12:04;;;;;;;4.87;3.07;;;;;;;30.70;21.54;95137.25;4992373;28;20297;-71
2022/05/17 10:14:36;;;;;;;6.40;3.10;;;;;;;30.86;21.85;95141.25;4992587;28;20582;-76
2022/05/17 10:17:20;;;;;;;5.73;2.90;;;;;;;30.89;20.85;95131.59;4989632;28;20293;-68
2022/05/17 10:19:56;;;;;;;11.33;3.50;;;;;;;30.62;23.36;95131.00;4991717;28;20214;-72
2022/05/17 10:22:32;;;;;;;5.60;3.57;;;;;;;31.05;22.11;95136.69;4992131;28;20205;-66
2022/05/17 10:25:01;;;;;;;5.63;3.27;;;;;;;31.22;20.60;95125.94;4992203;28;20206;-70
2022/05/17 10:27:34;;;;;;;11.17;3.63;;;;;;;30.84;20.83;95126.53;4991660;28;20245;-71
2022/05/17 10:30:32;;;;;;;5.80;3.40;;;;;;;31.10;21.23;95133.63;4992105;28;20214;-72
2022/05/17 10:33:07;;;;;;;15.97;7.90;;;;;;;30.74;21.72;95130.72;4991974;28;20705;-71
2022/05/17 10:35:47;;;;;;;7.30;3.50;;;;;;;30.63;20.65;95119.03;4992214;28;20205;-67
2022/05/17 10:38:21;;;;;;;5.47;3.47;;;;;;;30.67;22.17;95117.16;4992387;28;20585;-70
2022/05/17 10:40:50;;;;;;;9.53;3.50;;;;;;;30.98;21.27;95094.13;4991490;28;20191;-69
2022/05/17 10:43:24;;;;;;;3.90;2.83;;;;;;;31.19;20.30;95088.00;4991473;28;20198;-71
2022/05/17 10:46:16;;;;;;;7.37;3.20;;;;;;;32.14;20.42;95105.28;4991709;28;20354;-68
2022/05/17 10:49:06;;;;;;;7.77;3.00;;;;;;;31.69;22.03;95095.16;4991681;28;20234;-72
2022/05/17 10:51:37;;;;;;;9.43;4.93;;;;;;;32.11;20.58;95095.22;4991709;28;20197;-75
2022/05/17 10:54:24;;;;;;;8.10;3.30;;;;;;;32.11;20.74;95100.66;4990493;28;20241;-69
2022/05/17 10:57:12;;;;;;;7.33;3.27;;;;;;;32.42;20.09;95090.97;4991520;28;20194;-71
2022/05/17 11:00:08;;;;;;;30.30;3.73;;;;;;;32.46;19.85;95089.78;4990337;28;20596;-72
2022/05/17 11:02:57;;;;;;;4.50;3.13;;;;;;;31.86;20.00;95089.75;4990880;28;20619;-68
2022/05/17 11:05:29;;;;;;;4.43;3.30;;;;;;;31.58;19.26;95088.94;4991411;28;20198;-69
2022/05/17 11:08:02;;;;;;;14.93;5.83;;;;;;;31.65;18.98;95083.53;4990894;28;20703;-73
2022/05/17 11:10:50;;;;;;;4.57;2.90;;;;;;;31.81;18.67;95065.75;4991407;28;20266;-70
2022/05/17 11:13:35;;;;;;;6.67;5.23;;;;;;;32.06;19.50;95065.03;4991303;28;20222;-71
2022/05/17 11:16:12;;;;;;;9.80;2.73;;;;;;;30.91;19.38;95072.47;4991257;28;20205;-69
2022/05/17 11:18:55;;;;;;;9.87;3.17;;;;;;;30.91;19.42;95066.25;4992060;28;20237;-68
2022/05/17 11:21:32;;;;;;;4.17;2.70;;;;;;;31.39;19.60;95054.84;4990793;28;20710;-72
2022/05/17 11:24:17;;;;;;;9.40;2.43;;;;;;;30.85;19.70;95052.31;4990909;28;20228;-70
2022/05/17 11:27:03;;;;;;;9.17;2.90;;;;;;;30.58;19.61;95049.06;4990983;28;20191;-68
2022/05/17 11:29:56;;;;;;;6.53;2.80;;;;;;;31.63;19.90;95045.22;4990970;28;20187;-69
2022/05/17 11:32:32;;;;;;;6.33;2.70;;;;;;;32.03;20.00;95047.59;4991153;28;20209;-72
2022/05/17 11:35:02;;;;;;;4.40;2.50;;;;;;;32.57;19.17;95044.44;4990898;28;20202;-69
2022/05/17 11:37:32;;;;;;;3.40;2.37;;;;;;;31.46;19.02;95037.84;4990866;28;20681;-68
2022/05/17 11:40:04;;;;;;;5.87;2.57;;;;;;;31.80;19.10;95031.69;4990842;28;20189;-77
2022/05/17 11:43:40;;;;;;;7.13;2.40;;;;;;;32.05;19.74;95031.72;4991107;28;20237;-67
2022/05/17 11:45:49;;;;;;;9.83;6.83;;;;;;;33.12;19.31;95017.50;4991295;28;20669;-68
2022/05/17 11:48:20;;;;;;;5.27;4.30;;;;;;;32.71;18.57;95019.22;4990902;28;20217;-73
2022/05/17 11:50:51;;;;;;;7.10;4.83;;;;;;;33.10;19.36;95021.78;4990676;28;20190;-71
2022/05/17 11:53:24;;;;;;;5.07;3.03;;;;;;;32.91;18.57;95028.44;4990250;28;20269;-72
2022/05/17 11:56:11;;;;;;;5.60;2.87;;;;;;;33.00;18.85;95014.44;4990584;28;20190;-73
2022/05/17 11:58:38;;;;;;;4.50;2.50;;;;;;;32.57;18.27;95011.88;4990289;28;20357;-71
2022/05/17 12:01:30;;;;;;;2.63;2.17;;;;;;;32.87;18.53;95016.03;4990379;28;20241;-75
2022/05/17 12:04:07;;;;;;;4.20;2.30;;;;;;;32.49;19.16;95021.22;4990247;28;20196;-75